Time,TemperatureF,DewpointF,PressureIn,WindDirection,WindDirectionDegrees,WindSpeedMPH,WindSpeedGustMPH,Humidity,HourlyPrecipIn,Conditions,Clouds,dailyrainin,SoftwareType,DateUTC
2013-01-25 00:00:00,25.7,8.7,30.44,East,93,0.0,4.0,48,0.00,,---,0.00,VWS V14.01,2013-01-25 05:00:00,
2013-01-25 00:01:00,25.7,8.3,30.44,East,93,0.0,4.0,47,0.00,,---,0.00,VWS V14.01,2013-01-25 05:01:00,
2013-01-25 00:02:00,25.7,8.3,30.43,East,93,0.0,0.0,47,0.00,,---,0.00,VWS V14.01,2013-01-25 05:02:00,
2013-01-25 00:07:00,25.7,8.3,30.44,ENE,67,0.0,2.0,47,0.00,,---,0.00,VWS V14.01,2013-01-25 05:07:00,
2013-01-25 00:12:00,25.7,8.3,30.44,ENE,77,1.0,3.0,47,0.00,,---,0.00,VWS V14.01,2013-01-25 05:12:00,
2013-01-25 00:17:00,25.6,8.2,30.44,East,80,0.0,3.0,47,0.00,,---,0.00,VWS V14.01,2013-01-25 05:17:00,
2013-01-25 00:22:00,25.6,8.2,30.44,ESE,118,1.0,3.0,47,0.00,,---,0.00,VWS V14.01,2013-01-25 05:22:00,
2013-01-25 00:27:00,25.6,7.7,30.44,East,89,0.0,3.0,46,0.00,,---,0.00,VWS V14.01,2013-01-25 05:27:00,
2013-01-25 00:30:00,25.6,8.2,30.44,ENE,57,0.0,3.0,47,0.00,,---,0.00,VWS V14.01,2013-01-25 05:30:00,
2013-01-25 00:32:00,25.6,8.6,30.44,East,84,1.0,3.0,48,0.00,,---,0.00,VWS V14.01,2013-01-25 05:32:00,
2013-01-25 00:37:00,25.5,8.1,30.44,ENE,72,0.0,3.0,47,0.00,,---,0.00,VWS V14.01,2013-01-25 05:37:00,
2013-01-25 00:42:00,25.5,7.6,30.44,ENE,64,0.0,3.0,46,0.00,,---,0.00,VWS V14.01,2013-01-25 05:42:00,
2013-01-25 00:47:00,25.4,7.5,30.44,ESE,111,0.0,3.0,46,0.00,,---,0.00,VWS V14.01,2013-01-25 05:47:00,
2013-01-25 00:52:00,25.4,7.5,30.45,ESE,111,0.0,3.0,46,0.00,,---,0.00,VWS V14.01,2013-01-25 05:52:00,
2013-01-25 00:57:00,25.3,8.4,30.45,ESE,111,0.0,3.0,48,0.00,,---,0.00,VWS V14.01,2013-01-25 05:57:00,
2013-01-25 01:00:00,25.3,8.4,30.44,ESE,111,0.0,3.0,48,0.00,,---,0.00,VWS V14.01,2013-01-25 06:00:00,
2013-01-25 01:02:00,25.3,7.9,30.45,ESE,111,0.0,0.0,47,0.00,,---,0.00,VWS V14.01,2013-01-25 06:02:00,
2013-01-25 01:07:00,25.2,8.3,30.45,ESE,111,0.0,0.0,48,0.00,,---,0.00,VWS V14.01,2013-01-25 06:07:00,
2013-01-25 01:12:00,25.0,8.1,30.45,ESE,111,0.0,0.0,48,0.00,,---,0.00,VWS V14.01,2013-01-25 06:12:00,
2013-01-25 01:17:00,24.9,8.9,30.46,ESE,111,0.0,0.0,50,0.00,,---,0.00,VWS V14.01,2013-01-25 06:17:00,
2013-01-25 01:22:00,24.7,8.7,30.45,ESE,111,0.0,0.0,50,0.00,,---,0.00,VWS V14.01,2013-01-25 06:22:00,
2013-01-25 01:27:00,24.3,8.4,30.46,ESE,111,0.0,0.0,50,0.00,,---,0.00,VWS V14.01,2013-01-25 06:27:00,
2013-01-25 01:30:00,24.2,8.7,30.45,ESE,111,0.0,0.0,51,0.00,,---,0.00,VWS V14.01,2013-01-25 06:30:00,
2013-01-25 01:32:00,24.2,8.7,30.45,ESE,111,0.0,0.0,51,0.00,,---,0.00,VWS V14.01,2013-01-25 06:32:00,
2013-01-25 01:37:00,24.0,9.8,30.45,ESE,111,0.0,0.0,54,0.00,,---,0.00,VWS V14.01,2013-01-25 06:37:00,
2013-01-25 01:42:00,23.9,10.1,30.46,ESE,111,0.0,0.0,55,0.00,,---,0.00,VWS V14.01,2013-01-25 06:42:00,
2013-01-25 01:47:00,23.7,10.7,30.46,ESE,111,0.0,0.0,57,0.00,,---,0.00,VWS V14.01,2013-01-25 06:47:00,
2013-01-25 01:52:00,23.4,10.0,30.46,ESE,111,0.0,0.0,56,0.00,,---,0.00,VWS V14.01,2013-01-25 06:52:00,
2013-01-25 01:57:00,23.2,9.8,30.46,ESE,111,0.0,0.0,56,0.00,,---,0.00,VWS V14.01,2013-01-25 06:57:00,
2013-01-25 02:00:00,23.0,10.4,30.46,ESE,111,0.0,0.0,58,0.00,,---,0.00,VWS V14.01,2013-01-25 07:00:00,
2013-01-25 02:02:00,23.0,10.4,30.46,ESE,111,0.0,0.0,58,0.00,,---,0.00,VWS V14.01,2013-01-25 07:02:00,
2013-01-25 02:07:00,22.7,10.5,30.47,ESE,111,0.0,0.0,59,0.00,,---,0.00,VWS V14.01,2013-01-25 07:07:00,
2013-01-25 02:12:00,22.5,9.6,30.46,ESE,111,0.0,0.0,57,0.00,,---,0.00,VWS V14.01,2013-01-25 07:12:00,
2013-01-25 02:17:00,22.3,10.2,30.47,ESE,111,0.0,0.0,59,0.00,,---,0.00,VWS V14.01,2013-01-25 07:17:00,
2013-01-25 02:22:00,22.1,10.4,30.47,ESE,111,0.0,0.0,60,0.00,,---,0.00,VWS V14.01,2013-01-25 07:22:00,
2013-01-25 02:27:00,21.7,9.6,30.47,ESE,111,0.0,1.0,59,0.00,,---,0.00,VWS V14.01,2013-01-25 07:27:00,
2013-01-25 02:30:00,21.6,10.2,30.46,ESE,111,0.0,1.0,61,0.00,,---,0.00,VWS V14.01,2013-01-25 07:30:00,
2013-01-25 02:32:00,21.6,10.2,30.47,ESE,111,0.0,0.0,61,0.00,,---,0.00,VWS V14.01,2013-01-25 07:32:00,
2013-01-25 02:37:00,21.4,10.4,30.46,ESE,111,0.0,0.0,62,0.00,,---,0.00,VWS V14.01,2013-01-25 07:37:00,
2013-01-25 02:42:00,21.3,10.7,30.46,ESE,111,0.0,0.0,63,0.00,,---,0.00,VWS V14.01,2013-01-25 07:42:00,
2013-01-25 02:47:00,21.1,10.5,30.45,ESE,111,0.0,0.0,63,0.00,,---,0.00,VWS V14.01,2013-01-25 07:47:00,
2013-01-25 02:52:00,20.9,11.0,30.45,ESE,111,0.0,0.0,65,0.00,,---,0.00,VWS V14.01,2013-01-25 07:52:00,
2013-01-25 02:57:00,20.8,11.2,30.46,ESE,111,0.0,0.0,66,0.00,,---,0.00,VWS V14.01,2013-01-25 07:57:00,
2013-01-25 03:00:00,20.7,11.5,30.46,ESE,111,0.0,0.0,67,0.00,,---,0.00,VWS V14.01,2013-01-25 08:00:00,
2013-01-25 03:02:00,20.6,11.7,30.46,ESE,111,0.0,0.0,68,0.00,,---,0.00,VWS V14.01,2013-01-25 08:02:00,
2013-01-25 03:07:00,20.4,11.5,30.45,ESE,111,0.0,0.0,68,0.00,,---,0.00,VWS V14.01,2013-01-25 08:07:00,
2013-01-25 03:12:00,20.4,11.9,30.46,ESE,111,0.0,0.0,69,0.00,,---,0.00,VWS V14.01,2013-01-25 08:12:00,
2013-01-25 03:17:00,20.2,12.0,30.46,ESE,111,0.0,0.0,70,0.00,,---,0.00,VWS V14.01,2013-01-25 08:17:00,
2013-01-25 03:22:00,20.2,12.0,30.46,ESE,111,0.0,0.0,70,0.00,,---,0.00,VWS V14.01,2013-01-25 08:22:00,
2013-01-25 03:27:00,20.1,11.9,30.45,ESE,111,0.0,0.0,70,0.00,,---,0.00,VWS V14.01,2013-01-25 08:27:00,
2013-01-25 03:30:00,20.1,11.9,30.45,ESE,111,0.0,0.0,70,0.00,,---,0.00,VWS V14.01,2013-01-25 08:30:00,
2013-01-25 03:32:00,20.1,11.9,30.45,ESE,111,0.0,0.0,70,0.00,,---,0.00,VWS V14.01,2013-01-25 08:32:00,
2013-01-25 03:37:00,20.2,12.3,30.45,ESE,111,0.0,0.0,71,0.00,,---,0.00,VWS V14.01,2013-01-25 08:37:00,
2013-01-25 03:42:00,20.2,12.9,30.45,ESE,111,0.0,0.0,73,0.00,,---,0.00,VWS V14.01,2013-01-25 08:42:00,
2013-01-25 03:47:00,20.2,12.6,30.45,ESE,111,0.0,0.0,72,0.00,,---,0.00,VWS V14.01,2013-01-25 08:47:00,
2013-01-25 03:52:00,20.2,12.9,30.44,ESE,111,0.0,0.0,73,0.00,,---,0.00,VWS V14.01,2013-01-25 08:52:00,
2013-01-25 03:57:00,20.2,12.9,30.44,ESE,111,0.0,0.0,73,0.00,,---,0.00,VWS V14.01,2013-01-25 08:57:00,
2013-01-25 04:00:00,20.2,12.3,30.43,ESE,111,0.0,0.0,71,0.00,,---,0.00,VWS V14.01,2013-01-25 09:00:00,
2013-01-25 04:02:00,20.2,12.6,30.43,ESE,111,0.0,0.0,72,0.00,,---,0.00,VWS V14.01,2013-01-25 09:02:00,
2013-01-25 04:07:00,20.2,12.6,30.43,ESE,111,0.0,0.0,72,0.00,,---,0.00,VWS V14.01,2013-01-25 09:07:00,
2013-01-25 04:12:00,20.3,13.0,30.43,ESE,111,0.0,0.0,73,0.00,,---,0.00,VWS V14.01,2013-01-25 09:12:00,
2013-01-25 04:17:00,20.3,13.0,30.43,ESE,111,0.0,0.0,73,0.00,,---,0.00,VWS V14.01,2013-01-25 09:17:00,
2013-01-25 04:22:00,20.4,11.9,30.45,ESE,111,0.0,0.0,69,0.00,,---,0.00,VWS V14.01,2013-01-25 09:22:00,
2013-01-25 04:27:00,20.5,12.3,30.44,ESE,111,0.0,0.0,70,0.00,,---,0.00,VWS V14.01,2013-01-25 09:27:00,
2013-01-25 04:30:00,20.6,13.0,30.43,ESE,111,0.0,0.0,72,0.00,,---,0.00,VWS V14.01,2013-01-25 09:30:00,
2013-01-25 04:32:00,20.6,12.7,30.43,ESE,111,0.0,0.0,71,0.00,,---,0.00,VWS V14.01,2013-01-25 09:32:00,
2013-01-25 04:37:00,20.9,12.4,30.43,ESE,111,0.0,0.0,69,0.00,,---,0.00,VWS V14.01,2013-01-25 09:37:00,
2013-01-25 04:42:00,21.0,13.4,30.43,ESE,111,0.0,0.0,72,0.00,,---,0.00,VWS V14.01,2013-01-25 09:42:00,
2013-01-25 04:47:00,21.1,13.2,30.45,ESE,111,0.0,0.0,71,0.00,,---,0.00,VWS V14.01,2013-01-25 09:47:00,
2013-01-25 04:52:00,21.2,12.6,30.44,ESE,111,0.0,0.0,69,0.00,,---,0.00,VWS V14.01,2013-01-25 09:52:00,
2013-01-25 04:57:00,21.2,12.6,30.43,ESE,111,0.0,0.0,69,0.00,,---,0.00,VWS V14.01,2013-01-25 09:57:00,
2013-01-25 05:00:00,21.4,11.8,30.44,ESE,111,0.0,0.0,66,0.00,,---,0.00,VWS V14.01,2013-01-25 10:00:00,
2013-01-25 05:02:00,21.4,12.2,30.44,ESE,111,0.0,0.0,67,0.00,,---,0.00,VWS V14.01,2013-01-25 10:02:00,
2013-01-25 05:07:00,21.5,12.9,30.43,ESE,111,0.0,0.0,69,0.00,,---,0.00,VWS V14.01,2013-01-25 10:07:00,
2013-01-25 05:12:00,21.6,12.0,30.44,ESE,111,0.0,0.0,66,0.00,,---,0.00,VWS V14.01,2013-01-25 10:12:00,
2013-01-25 05:17:00,21.6,12.0,30.43,ESE,111,0.0,0.0,66,0.00,,---,0.00,VWS V14.01,2013-01-25 10:17:00,
2013-01-25 05:22:00,21.7,12.4,30.43,ESE,111,0.0,0.0,67,0.00,,---,0.00,VWS V14.01,2013-01-25 10:22:00,
2013-01-25 05:27:00,21.7,12.8,30.44,ESE,111,0.0,0.0,68,0.00,,---,0.00,VWS V14.01,2013-01-25 10:27:00,
2013-01-25 05:30:00,21.8,12.9,30.44,ESE,111,0.0,0.0,68,0.00,,---,0.00,VWS V14.01,2013-01-25 10:30:00,
2013-01-25 05:32:00,21.8,12.9,30.44,ESE,111,0.0,0.0,68,0.00,,---,0.00,VWS V14.01,2013-01-25 10:32:00,
2013-01-25 05:37:00,21.8,12.9,30.45,ESE,111,0.0,0.0,68,0.00,,---,0.00,VWS V14.01,2013-01-25 10:37:00,
2013-01-25 05:42:00,21.8,12.5,30.43,ESE,111,0.0,0.0,67,0.00,,---,0.00,VWS V14.01,2013-01-25 10:42:00,
2013-01-25 05:47:00,21.8,12.5,30.44,ESE,111,0.0,0.0,67,0.00,,---,0.00,VWS V14.01,2013-01-25 10:47:00,
2013-01-25 05:52:00,21.9,12.3,30.43,ESE,111,0.0,0.0,66,0.00,,---,0.00,VWS V14.01,2013-01-25 10:52:00,
2013-01-25 05:57:00,22.0,13.1,30.44,ESE,111,0.0,0.0,68,0.00,,---,0.00,VWS V14.01,2013-01-25 10:57:00,
2013-01-25 06:00:00,22.1,12.8,30.43,East,81,1.0,2.0,67,0.00,,---,0.00,VWS V14.01,2013-01-25 11:00:00,
2013-01-25 06:02:00,22.1,12.5,30.43,East,81,0.0,1.0,66,0.00,,---,0.00,VWS V14.01,2013-01-25 11:02:00,
2013-01-25 06:07:00,22.3,12.3,30.44,East,81,0.0,1.0,65,0.00,,---,0.00,VWS V14.01,2013-01-25 11:07:00,
2013-01-25 06:12:00,22.4,11.7,30.44,East,81,0.0,1.0,63,0.00,,---,0.00,VWS V14.01,2013-01-25 11:12:00,
2013-01-25 06:17:00,22.5,10.7,30.44,East,81,0.0,1.0,60,0.00,,---,0.00,VWS V14.01,2013-01-25 11:17:00,
2013-01-25 06:22:00,22.7,10.5,30.43,East,81,0.0,1.0,59,0.00,,---,0.00,VWS V14.01,2013-01-25 11:22:00,
2013-01-25 06:27:00,22.8,11.0,30.43,East,81,0.0,1.0,60,0.00,,---,0.00,VWS V14.01,2013-01-25 11:27:00,
2013-01-25 06:30:00,22.9,11.1,30.43,East,81,0.0,1.0,60,0.00,,---,0.00,VWS V14.01,2013-01-25 11:30:00,
2013-01-25 06:32:00,23.0,11.2,30.43,East,81,0.0,0.0,60,0.00,,---,0.00,VWS V14.01,2013-01-25 11:32:00,
2013-01-25 06:37:00,23.1,10.9,30.43,East,81,0.0,0.0,59,0.00,,---,0.00,VWS V14.01,2013-01-25 11:37:00,
2013-01-25 06:42:00,23.2,11.4,30.43,East,81,0.0,0.0,60,0.00,,---,0.00,VWS V14.01,2013-01-25 11:42:00,
2013-01-25 06:47:00,23.3,11.1,30.43,East,81,0.0,0.0,59,0.00,,---,0.00,VWS V14.01,2013-01-25 11:47:00,
2013-01-25 06:52:00,23.4,11.6,30.44,East,81,0.0,0.0,60,0.00,,---,0.00,VWS V14.01,2013-01-25 11:52:00,
2013-01-25 06:57:00,23.5,11.7,30.44,East,81,0.0,1.0,60,0.00,,---,0.00,VWS V14.01,2013-01-25 11:57:00,
2013-01-25 07:00:00,23.6,11.4,30.44,East,81,0.0,1.0,59,0.00,,---,0.00,VWS V14.01,2013-01-25 12:00:00,
2013-01-25 07:02:00,23.6,11.4,30.43,East,81,0.0,0.0,59,0.00,,---,0.00,VWS V14.01,2013-01-25 12:02:00,
2013-01-25 07:07:00,23.6,10.2,30.43,East,81,0.0,0.0,56,0.00,,---,0.00,VWS V14.01,2013-01-25 12:07:00,
2013-01-25 07:12:00,23.7,10.7,30.43,East,81,0.0,0.0,57,0.00,,---,0.00,VWS V14.01,2013-01-25 12:12:00,
2013-01-25 07:17:00,23.8,10.8,30.42,East,81,0.0,1.0,57,0.00,,---,0.00,VWS V14.01,2013-01-25 12:17:00,
2013-01-25 07:22:00,23.8,10.0,30.42,East,83,0.0,2.0,55,0.00,,---,0.00,VWS V14.01,2013-01-25 12:22:00,
2013-01-25 07:27:00,23.9,9.7,30.42,East,83,0.0,2.0,54,0.00,,---,0.00,VWS V14.01,2013-01-25 12:27:00,
2013-01-25 07:30:00,24.0,9.4,30.43,WNW,300,0.0,2.0,53,0.00,,---,0.00,VWS V14.01,2013-01-25 12:30:00,
2013-01-25 07:32:00,24.0,9.4,30.42,WNW,300,0.0,0.0,53,0.00,,---,0.00,VWS V14.01,2013-01-25 12:32:00,
2013-01-25 07:37:00,24.0,9.8,30.42,East,92,0.0,1.0,54,0.00,,---,0.00,VWS V14.01,2013-01-25 12:37:00,
2013-01-25 07:42:00,24.1,9.5,30.41,East,92,0.0,1.0,53,0.00,,---,0.00,VWS V14.01,2013-01-25 12:42:00,
2013-01-25 07:47:00,24.2,9.1,30.41,SE,140,0.0,1.0,52,0.00,,---,0.00,VWS V14.01,2013-01-25 12:47:00,
2013-01-25 07:52:00,24.2,9.1,30.41,SE,138,0.0,1.0,52,0.00,,---,0.00,VWS V14.01,2013-01-25 12:52:00,
2013-01-25 07:57:00,24.3,8.8,30.41,NE,42,0.0,1.0,51,0.00,,---,0.00,VWS V14.01,2013-01-25 12:57:00,
2013-01-25 08:00:00,24.3,8.8,30.40,NE,54,0.0,2.0,51,0.00,,---,0.00,VWS V14.01,2013-01-25 13:00:00,
2013-01-25 08:02:00,24.3,8.8,30.40,NE,54,0.0,0.0,51,0.00,,---,0.00,VWS V14.01,2013-01-25 13:02:00,
2013-01-25 08:07:00,24.4,8.9,30.40,NE,54,0.0,0.0,51,0.00,,---,0.00,VWS V14.01,2013-01-25 13:07:00,
2013-01-25 08:12:00,24.5,9.0,30.40,ESE,112,0.0,2.0,51,0.00,,---,0.00,VWS V14.01,2013-01-25 13:12:00,
2013-01-25 08:17:00,24.5,8.5,30.39,ESE,123,0.0,5.0,50,0.00,,---,0.00,VWS V14.01,2013-01-25 13:17:00,
2013-01-25 08:22:00,24.7,8.3,30.39,ENE,72,0.0,5.0,49,0.00,,---,0.00,VWS V14.01,2013-01-25 13:22:00,
2013-01-25 08:27:00,24.7,8.7,30.39,ENE,78,0.0,5.0,50,0.00,,---,0.00,VWS V14.01,2013-01-25 13:27:00,
2013-01-25 08:30:00,24.8,8.8,30.40,NE,40,0.0,5.0,50,0.00,,---,0.00,VWS V14.01,2013-01-25 13:30:00,
2013-01-25 08:32:00,24.8,8.8,30.41,NE,40,0.0,0.0,50,0.00,,---,0.00,VWS V14.01,2013-01-25 13:32:00,
2013-01-25 08:37:00,24.9,8.9,30.41,NW,319,0.0,2.0,50,0.00,,---,0.00,VWS V14.01,2013-01-25 13:37:00,
2013-01-25 08:42:00,24.9,8.5,30.40,ENE,65,0.0,2.0,49,0.00,,---,0.00,VWS V14.01,2013-01-25 13:42:00,
2013-01-25 08:47:00,25.0,9.0,30.39,SE,137,0.0,4.0,50,0.00,,---,0.00,VWS V14.01,2013-01-25 13:47:00,
2013-01-25 08:52:00,25.1,9.1,30.39,East,92,0.0,4.0,50,0.00,,---,0.00,VWS V14.01,2013-01-25 13:52:00,
2013-01-25 08:57:00,25.1,8.6,30.40,East,101,2.0,4.0,49,0.00,,---,0.00,VWS V14.01,2013-01-25 13:57:00,
2013-01-25 09:00:00,25.1,8.6,30.39,East,80,0.0,4.0,49,0.00,,---,0.00,VWS V14.01,2013-01-25 14:00:00,
2013-01-25 09:02:00,25.1,8.6,30.39,East,80,0.0,0.0,49,0.00,,---,0.00,VWS V14.01,2013-01-25 14:02:00,
2013-01-25 09:07:00,25.1,9.1,30.39,ENE,59,0.0,3.0,50,0.00,,---,0.00,VWS V14.01,2013-01-25 14:07:00,
2013-01-25 09:12:00,25.1,9.1,30.39,East,82,0.0,3.0,50,0.00,,---,0.00,VWS V14.01,2013-01-25 14:12:00,
2013-01-25 09:17:00,25.2,8.7,30.40,SW,214,0.0,3.0,49,0.00,,---,0.00,VWS V14.01,2013-01-25 14:17:00,
2013-01-25 09:22:00,25.3,9.7,30.41,WSW,253,0.0,3.0,51,0.00,,---,0.00,VWS V14.01,2013-01-25 14:22:00,
2013-01-25 09:27:00,25.3,9.7,30.40,WSW,253,1.0,3.0,51,0.00,,---,0.00,VWS V14.01,2013-01-25 14:27:00,
2013-01-25 09:30:00,25.4,8.9,30.40,WSW,253,0.0,3.0,49,0.00,,---,0.00,VWS V14.01,2013-01-25 14:30:00,
2013-01-25 09:32:00,25.4,8.9,30.40,WSW,253,0.0,0.0,49,0.00,,---,0.00,VWS V14.01,2013-01-25 14:32:00,
2013-01-25 09:37:00,25.5,9.5,30.41,WSW,253,0.0,1.0,50,0.00,,---,0.00,VWS V14.01,2013-01-25 14:37:00,
2013-01-25 09:42:00,25.6,10.0,30.41,WSW,253,0.0,1.0,51,0.00,,---,0.00,VWS V14.01,2013-01-25 14:42:00,
2013-01-25 09:47:00,25.6,9.6,30.42,WSW,253,0.0,1.0,50,0.00,,---,0.00,VWS V14.01,2013-01-25 14:47:00,
2013-01-25 09:52:00,25.6,9.6,30.41,WSW,253,0.0,1.0,50,0.00,,---,0.00,VWS V14.01,2013-01-25 14:52:00,
2013-01-25 09:57:00,25.6,9.6,30.41,WSW,253,0.0,1.0,50,0.00,,---,0.00,VWS V14.01,2013-01-25 14:57:00,
2013-01-25 10:00:00,25.7,9.6,30.40,WSW,253,0.0,1.0,50,0.00,,---,0.00,VWS V14.01,2013-01-25 15:00:00,
2013-01-25 10:02:00,25.7,9.6,30.40,WSW,253,0.0,0.0,50,0.00,,---,0.00,VWS V14.01,2013-01-25 15:02:00,
2013-01-25 10:07:00,25.8,10.6,30.41,WSW,253,0.0,0.0,52,0.00,,---,0.00,VWS V14.01,2013-01-25 15:07:00,
2013-01-25 10:12:00,25.8,9.7,30.40,WSW,253,0.0,0.0,50,0.00,,---,0.00,VWS V14.01,2013-01-25 15:12:00,
2013-01-25 10:17:00,25.8,9.7,30.40,WSW,253,0.0,1.0,50,0.00,,---,0.00,VWS V14.01,2013-01-25 15:17:00,
2013-01-25 10:22:00,25.8,10.2,30.39,WSW,254,0.0,1.0,51,0.00,,---,0.00,VWS V14.01,2013-01-25 15:22:00,
2013-01-25 10:27:00,25.9,10.3,30.39,WSW,253,0.0,1.0,51,0.00,,---,0.00,VWS V14.01,2013-01-25 15:27:00,
2013-01-25 10:30:00,25.9,11.1,30.39,SW,218,0.0,1.0,53,0.00,,---,0.00,VWS V14.01,2013-01-25 15:30:00,
2013-01-25 10:32:00,26.0,11.2,30.39,SW,218,0.0,0.0,53,0.00,,---,0.00,VWS V14.01,2013-01-25 15:32:00,
2013-01-25 10:37:00,26.0,10.8,30.38,SW,218,0.0,1.0,52,0.00,,---,0.00,VWS V14.01,2013-01-25 15:37:00,
2013-01-25 10:42:00,26.0,11.2,30.37,SW,218,0.0,1.0,53,0.00,,---,0.00,VWS V14.01,2013-01-25 15:42:00,
2013-01-25 10:47:00,26.0,11.2,30.37,SW,218,0.0,1.0,53,0.00,,---,0.00,VWS V14.01,2013-01-25 15:47:00,
2013-01-25 10:52:00,26.1,12.6,30.37,SW,218,0.0,1.0,56,0.00,,---,0.00,VWS V14.01,2013-01-25 15:52:00,
2013-01-25 10:57:00,26.1,12.6,30.36,NW,306,0.0,2.0,56,0.00,,---,0.00,VWS V14.01,2013-01-25 15:57:00,
2013-01-25 11:00:00,26.0,13.3,30.35,ENE,72,0.0,2.0,58,0.00,,---,0.00,VWS V14.01,2013-01-25 16:00:00,
2013-01-25 11:02:00,26.0,13.6,30.35,ENE,72,0.0,1.0,59,0.00,,---,0.00,VWS V14.01,2013-01-25 16:02:00,
2013-01-25 11:07:00,25.9,13.6,30.34,ENE,61,0.0,2.0,59,0.00,,---,0.00,VWS V14.01,2013-01-25 16:07:00,
2013-01-25 11:12:00,25.7,13.8,30.34,ENE,65,0.0,2.0,60,0.00,,---,0.00,VWS V14.01,2013-01-25 16:12:00,
2013-01-25 11:17:00,25.6,14.8,30.36,NNW,331,1.0,2.0,63,0.00,,---,0.00,VWS V14.01,2013-01-25 16:17:00,
2013-01-25 11:22:00,25.5,14.7,30.35,NNW,329,0.0,2.0,63,0.00,,---,0.00,VWS V14.01,2013-01-25 16:22:00,
2013-01-25 11:27:00,25.5,15.7,30.35,NNW,329,0.0,2.0,66,0.00,,---,0.00,VWS V14.01,2013-01-25 16:27:00,
2013-01-25 11:30:00,25.5,16.4,30.35,NNW,329,0.0,2.0,68,0.00,,---,0.00,VWS V14.01,2013-01-25 16:30:00,
2013-01-25 11:32:00,25.5,16.4,30.35,NNW,329,0.0,0.0,68,0.00,,---,0.00,VWS V14.01,2013-01-25 16:32:00,
2013-01-25 11:37:00,25.5,16.8,30.34,NNW,329,0.0,0.0,69,0.00,,---,0.00,VWS V14.01,2013-01-25 16:37:00,
2013-01-25 11:42:00,25.5,17.4,30.34,NNW,329,0.0,0.0,71,0.00,,---,0.00,VWS V14.01,2013-01-25 16:42:00,
2013-01-25 11:47:00,25.5,18.1,30.34,NNW,329,0.0,1.0,73,0.00,,---,0.00,VWS V14.01,2013-01-25 16:47:00,
2013-01-25 11:52:00,25.5,18.7,30.33,NNW,329,0.0,1.0,75,0.00,,---,0.00,VWS V14.01,2013-01-25 16:52:00,
2013-01-25 11:57:00,25.5,18.7,30.32,NNW,329,0.0,1.0,75,0.00,,---,0.00,VWS V14.01,2013-01-25 16:57:00,
2013-01-25 12:00:00,25.5,18.7,30.31,NNW,329,0.0,1.0,75,0.00,,---,0.00,VWS V14.01,2013-01-25 17:00:00,
2013-01-25 12:02:00,25.5,18.7,30.31,NNW,329,0.0,0.0,75,0.00,,---,0.00,VWS V14.01,2013-01-25 17:02:00,
2013-01-25 12:07:00,25.4,18.9,30.32,NNW,329,0.0,1.0,76,0.00,,---,0.00,VWS V14.01,2013-01-25 17:07:00,
2013-01-25 12:11:00,25.4,18.6,30.31,NNW,329,0.0,1.0,75,0.00,,---,0.00,VWS V14.01,2013-01-25 17:11:00,
2013-01-25 12:16:00,25.4,18.9,30.30,NNW,329,0.0,1.0,76,0.00,,---,0.00,VWS V14.01,2013-01-25 17:16:00,
2013-01-25 12:21:00,25.3,19.1,30.28,NNW,329,0.0,1.0,77,0.00,,---,0.00,VWS V14.01,2013-01-25 17:21:00,
2013-01-25 12:26:00,25.3,19.1,30.26,NNW,329,0.0,1.0,77,0.00,,---,0.00,VWS V14.01,2013-01-25 17:26:00,
2013-01-25 12:30:00,25.2,18.7,30.27,NNW,329,1.0,2.0,76,0.00,,---,0.00,VWS V14.01,2013-01-25 17:30:00,
2013-01-25 12:31:00,25.2,18.7,30.27,NNW,329,0.0,1.0,76,0.00,,---,0.00,VWS V14.01,2013-01-25 17:31:00,
2013-01-25 12:36:00,25.1,18.9,30.28,NNW,329,0.0,1.0,77,0.00,,---,0.00,VWS V14.01,2013-01-25 17:36:00,
2013-01-25 12:41:00,25.1,18.9,30.26,NNW,329,0.0,1.0,77,0.00,,---,0.00,VWS V14.01,2013-01-25 17:41:00,
2013-01-25 12:46:00,24.9,18.1,30.26,NNW,329,0.0,1.0,75,0.00,,---,0.00,VWS V14.01,2013-01-25 17:46:00,
2013-01-25 12:51:00,24.8,18.0,30.25,NNW,329,1.0,1.0,75,0.00,,---,0.00,VWS V14.01,2013-01-25 17:51:00,
2013-01-25 12:56:00,24.7,18.2,30.25,NNW,329,0.0,1.0,76,0.00,,---,0.00,VWS V14.01,2013-01-25 17:56:00,
2013-01-25 13:00:00,24.6,18.4,30.25,NNW,329,0.0,1.0,77,0.00,,---,0.00,VWS V14.01,2013-01-25 18:00:00,
2013-01-25 13:01:00,24.6,18.7,30.25,NNW,329,0.0,0.0,78,0.00,,---,0.00,VWS V14.01,2013-01-25 18:01:00,
2013-01-25 13:06:00,24.6,18.7,30.24,NNW,329,0.0,1.0,78,0.00,,---,0.00,VWS V14.01,2013-01-25 18:06:00,
2013-01-25 13:11:00,24.6,18.7,30.22,NNW,329,0.0,1.0,78,0.00,,---,0.00,VWS V14.01,2013-01-25 18:11:00,
2013-01-25 13:16:00,24.6,18.7,30.21,NNW,329,0.0,1.0,78,0.00,,---,0.00,VWS V14.01,2013-01-25 18:16:00,
2013-01-25 13:21:00,24.7,19.4,30.21,NNW,329,1.0,1.0,80,0.00,,---,0.00,VWS V14.01,2013-01-25 18:21:00,
2013-01-25 13:26:00,24.7,19.1,30.21,NNW,329,0.0,1.0,79,0.00,,---,0.00,VWS V14.01,2013-01-25 18:26:00,
2013-01-25 13:30:00,24.7,19.1,30.20,NNW,329,1.0,2.0,79,0.00,,---,0.00,VWS V14.01,2013-01-25 18:30:00,
2013-01-25 13:32:00,24.7,19.1,30.20,NNW,329,0.0,1.0,79,0.00,,---,0.00,VWS V14.01,2013-01-25 18:32:00,
2013-01-25 13:37:00,24.6,19.0,30.19,NNW,329,0.0,1.0,79,0.00,,---,0.00,VWS V14.01,2013-01-25 18:37:00,
2013-01-25 13:42:00,24.7,19.4,30.20,NNW,329,0.0,1.0,80,0.00,,---,0.00,VWS V14.01,2013-01-25 18:42:00,
2013-01-25 13:47:00,24.7,19.4,30.20,NNW,329,0.0,1.0,80,0.00,,---,0.00,VWS V14.01,2013-01-25 18:47:00,
2013-01-25 13:52:00,24.7,19.4,30.20,NNW,329,0.0,1.0,80,0.00,,---,0.00,VWS V14.01,2013-01-25 18:52:00,
2013-01-25 13:57:00,24.8,19.5,30.21,NNW,329,0.0,1.0,80,0.00,,---,0.00,VWS V14.01,2013-01-25 18:57:00,
2013-01-25 14:00:00,24.8,19.5,30.21,NNW,329,0.0,1.0,80,0.00,,---,0.00,VWS V14.01,2013-01-25 19:00:00,
2013-01-25 14:02:00,24.8,19.5,30.21,NNW,329,0.0,0.0,80,0.00,,---,0.00,VWS V14.01,2013-01-25 19:02:00,
2013-01-25 14:07:00,24.8,19.8,30.22,WNW,290,0.0,1.0,81,0.00,,---,0.00,VWS V14.01,2013-01-25 19:07:00,
2013-01-25 14:12:00,24.8,20.1,30.22,WNW,290,0.0,1.0,82,0.00,,---,0.00,VWS V14.01,2013-01-25 19:12:00,
2013-01-25 14:17:00,24.8,20.4,30.22,WNW,290,0.0,1.0,83,0.00,,---,0.00,VWS V14.01,2013-01-25 19:17:00,
2013-01-25 14:22:00,24.9,20.5,30.20,WNW,290,0.0,1.0,83,0.00,,---,0.00,VWS V14.01,2013-01-25 19:22:00,
2013-01-25 14:27:00,24.9,20.5,30.19,WNW,290,0.0,1.0,83,0.00,,---,0.00,VWS V14.01,2013-01-25 19:27:00,
2013-01-25 14:30:00,24.9,20.8,30.19,WNW,290,0.0,1.0,84,0.00,,---,0.00,VWS V14.01,2013-01-25 19:30:00,
2013-01-25 14:32:00,24.9,20.8,30.19,WNW,290,0.0,0.0,84,0.00,,---,0.00,VWS V14.01,2013-01-25 19:32:00,
2013-01-25 14:37:00,24.9,20.5,30.19,WNW,290,0.0,0.0,83,0.00,,---,0.00,VWS V14.01,2013-01-25 19:37:00,
2013-01-25 14:42:00,24.9,20.8,30.17,WNW,290,0.0,0.0,84,0.00,,---,0.00,VWS V14.01,2013-01-25 19:42:00,
2013-01-25 14:46:00,24.9,21.0,30.17,WNW,290,0.0,1.0,85,0.00,,---,0.00,VWS V14.01,2013-01-25 19:46:00,
2013-01-25 14:51:00,25.0,21.4,30.17,WNW,290,0.0,1.0,86,0.00,,---,0.00,VWS V14.01,2013-01-25 19:51:00,
2013-01-25 14:56:00,25.1,21.5,30.17,WNW,290,0.0,1.0,86,0.00,,---,0.00,VWS V14.01,2013-01-25 19:56:00,
2013-01-25 15:00:00,25.2,21.9,30.17,WNW,290,0.0,1.0,87,0.00,,---,0.00,VWS V14.01,2013-01-25 20:00:00,
2013-01-25 15:01:00,25.1,21.8,30.17,WNW,290,0.0,0.0,87,0.00,,---,0.00,VWS V14.01,2013-01-25 20:01:00,
2013-01-25 15:06:00,25.2,22.1,30.16,WNW,290,0.0,1.0,88,0.00,,---,0.00,VWS V14.01,2013-01-25 20:06:00,
2013-01-25 15:11:00,25.3,22.2,30.15,WNW,290,0.0,1.0,88,0.00,,---,0.00,VWS V14.01,2013-01-25 20:11:00,
2013-01-25 15:16:00,25.3,22.2,30.15,WNW,290,0.0,1.0,88,0.00,,---,0.00,VWS V14.01,2013-01-25 20:16:00,
2013-01-25 15:21:00,25.4,22.4,30.15,WNW,290,0.0,1.0,88,0.00,,---,0.00,VWS V14.01,2013-01-25 20:21:00,
2013-01-25 15:26:00,25.5,22.7,30.14,WNW,290,0.0,1.0,89,0.00,,---,0.00,VWS V14.01,2013-01-25 20:26:00,
2013-01-25 15:30:00,25.6,22.8,30.13,WNW,290,0.0,1.0,89,0.00,,---,0.00,VWS V14.01,2013-01-25 20:30:00,
2013-01-25 15:31:00,25.5,22.7,30.13,WNW,290,0.0,0.0,89,0.00,,---,0.00,VWS V14.01,2013-01-25 20:31:00,
2013-01-25 15:36:00,25.6,22.8,30.12,WNW,290,0.0,0.0,89,0.00,,---,0.00,VWS V14.01,2013-01-25 20:36:00,
2013-01-25 15:41:00,25.8,23.3,30.14,WNW,290,0.0,2.0,90,0.00,,---,0.00,VWS V14.01,2013-01-25 20:41:00,
2013-01-25 15:46:00,25.9,23.6,30.14,WNW,290,0.0,2.0,91,0.00,,---,0.00,VWS V14.01,2013-01-25 20:46:00,
2013-01-25 15:51:00,26.1,23.8,30.13,WNW,290,0.0,2.0,91,0.00,,---,0.00,VWS V14.01,2013-01-25 20:51:00,
2013-01-25 15:56:00,26.2,23.9,30.12,WNW,290,0.0,2.0,91,0.00,,---,0.00,VWS V14.01,2013-01-25 20:56:00,
2013-01-25 16:00:00,26.3,24.0,30.12,WNW,290,0.0,2.0,91,0.00,,---,0.00,VWS V14.01,2013-01-25 21:00:00,
2013-01-25 16:01:00,26.2,23.9,30.13,WNW,290,0.0,1.0,91,0.00,,---,0.00,VWS V14.01,2013-01-25 21:01:00,
2013-01-25 16:06:00,26.4,24.4,30.13,WNW,290,0.0,1.0,92,0.00,,---,0.00,VWS V14.01,2013-01-25 21:06:00,
2013-01-25 16:11:00,26.6,26.6,30.13,WNW,290,0.0,1.0,100,0.00,,---,0.00,VWS V14.01,2013-01-25 21:11:00,
2013-01-25 16:16:00,26.7,24.7,30.12,WNW,290,0.0,1.0,92,0.00,,---,0.00,VWS V14.01,2013-01-25 21:16:00,
2013-01-25 16:21:00,26.7,24.7,30.11,WNW,290,0.0,1.0,92,0.00,,---,0.00,VWS V14.01,2013-01-25 21:21:00,
2013-01-25 16:26:00,26.8,24.8,30.11,WNW,290,0.0,1.0,92,0.00,,---,0.00,VWS V14.01,2013-01-25 21:26:00,
2013-01-25 16:30:00,26.9,24.9,30.11,WNW,290,0.0,1.0,92,0.00,,---,0.00,VWS V14.01,2013-01-25 21:30:00,
2013-01-25 16:31:00,26.9,24.9,30.10,WNW,290,0.0,0.0,92,0.00,,---,0.00,VWS V14.01,2013-01-25 21:31:00,
2013-01-25 16:36:00,27.0,25.0,30.10,WNW,290,0.0,0.0,92,0.00,,---,0.00,VWS V14.01,2013-01-25 21:36:00,
2013-01-25 16:41:00,27.0,25.0,30.11,WNW,290,0.0,1.0,92,0.00,,---,0.00,VWS V14.01,2013-01-25 21:41:00,
2013-01-25 16:46:00,27.1,25.1,30.11,WNW,290,0.0,1.0,92,0.00,,---,0.00,VWS V14.01,2013-01-25 21:46:00,
2013-01-25 16:51:00,27.2,25.2,30.11,WNW,290,0.0,1.0,92,0.00,,---,0.00,VWS V14.01,2013-01-25 21:51:00,
2013-01-25 16:56:00,27.2,25.2,30.11,WNW,290,0.0,1.0,92,0.00,,---,0.00,VWS V14.01,2013-01-25 21:56:00,
2013-01-25 17:00:00,27.4,25.6,30.11,WNW,290,0.0,1.0,93,0.00,,---,0.00,VWS V14.01,2013-01-25 22:00:00,
2013-01-25 17:01:00,27.4,25.6,30.11,WNW,290,0.0,0.0,93,0.00,,---,0.00,VWS V14.01,2013-01-25 22:01:00,
2013-01-25 17:06:00,27.5,25.8,30.11,WNW,290,0.0,0.0,93,0.00,,---,0.00,VWS V14.01,2013-01-25 22:06:00,
2013-01-25 17:11:00,27.5,25.8,30.12,WNW,290,0.0,0.0,93,0.00,,---,0.00,VWS V14.01,2013-01-25 22:11:00,
2013-01-25 17:16:00,27.6,25.8,30.11,WNW,290,0.0,1.0,93,0.00,,---,0.00,VWS V14.01,2013-01-25 22:16:00,
2013-01-25 17:21:00,27.7,25.9,30.11,WNW,290,0.0,1.0,93,0.00,,---,0.00,VWS V14.01,2013-01-25 22:21:00,
2013-01-25 17:26:00,27.8,26.0,30.10,WNW,290,0.0,2.0,93,0.00,,---,0.00,VWS V14.01,2013-01-25 22:26:00,
2013-01-25 17:30:00,27.9,26.1,30.10,WNW,290,0.0,2.0,93,0.00,,---,0.00,VWS V14.01,2013-01-25 22:30:00,
2013-01-25 17:31:00,27.9,26.1,30.10,WNW,290,0.0,0.0,93,0.00,,---,0.00,VWS V14.01,2013-01-25 22:31:00,
2013-01-25 17:36:00,27.9,26.1,30.10,WNW,290,0.0,1.0,93,0.00,,---,0.00,VWS V14.01,2013-01-25 22:36:00,
2013-01-25 17:41:00,27.9,26.1,30.10,WNW,290,0.0,3.0,93,0.00,,---,0.00,VWS V14.01,2013-01-25 22:41:00,
2013-01-25 17:46:00,27.9,26.1,30.10,WNW,290,1.0,3.0,93,0.00,,---,0.00,VWS V14.01,2013-01-25 22:46:00,
2013-01-25 17:51:00,27.8,26.0,30.10,WNW,290,0.0,3.0,93,0.00,,---,0.00,VWS V14.01,2013-01-25 22:51:00,
2013-01-25 17:56:00,27.9,26.1,30.10,WNW,290,0.0,3.0,93,0.00,,---,0.00,VWS V14.01,2013-01-25 22:56:00,
2013-01-25 18:00:00,27.8,26.0,30.10,WNW,290,0.0,3.0,93,0.00,,---,0.00,VWS V14.01,2013-01-25 23:00:00,
2013-01-25 18:01:00,27.9,26.1,30.11,WNW,290,0.0,0.0,93,0.00,,---,0.00,VWS V14.01,2013-01-25 23:01:00,
2013-01-25 18:06:00,27.8,26.0,30.11,WNW,290,0.0,2.0,93,0.00,,---,0.00,VWS V14.01,2013-01-25 23:06:00,
2013-01-25 18:11:00,27.8,26.0,30.11,WNW,290,0.0,2.0,93,0.00,,---,0.00,VWS V14.01,2013-01-25 23:11:00,
2013-01-25 18:16:00,27.8,26.0,30.11,WNW,290,0.0,2.0,93,0.00,,---,0.00,VWS V14.01,2013-01-25 23:16:00,
2013-01-25 18:21:00,27.8,26.0,30.11,WNW,290,0.0,2.0,93,0.00,,---,0.00,VWS V14.01,2013-01-25 23:21:00,
2013-01-25 18:26:00,27.8,26.0,30.11,WNW,290,0.0,2.0,93,0.00,,---,0.00,VWS V14.01,2013-01-25 23:26:00,
2013-01-25 18:30:00,27.7,25.9,30.11,WNW,290,1.0,2.0,93,0.00,,---,0.00,VWS V14.01,2013-01-25 23:30:00,
2013-01-25 18:31:00,27.8,26.0,30.11,WNW,290,0.0,1.0,93,0.00,,---,0.00,VWS V14.01,2013-01-25 23:31:00,
2013-01-25 18:36:00,27.7,25.7,30.11,WNW,290,0.0,3.0,92,0.00,,---,0.00,VWS V14.01,2013-01-25 23:36:00,
2013-01-25 18:41:00,27.6,25.6,30.11,WNW,290,0.0,3.0,92,0.00,,---,0.00,VWS V14.01,2013-01-25 23:41:00,
2013-01-25 18:46:00,27.6,25.6,30.11,WNW,290,0.0,3.0,92,0.00,,---,0.00,VWS V14.01,2013-01-25 23:46:00,
2013-01-25 18:51:00,27.5,25.5,30.10,WNW,290,0.0,3.0,92,0.00,,---,0.00,VWS V14.01,2013-01-25 23:51:00,
2013-01-25 18:56:00,27.5,25.5,30.10,WNW,290,0.0,3.0,92,0.00,,---,0.00,VWS V14.01,2013-01-25 23:56:00,
2013-01-25 19:00:00,27.5,25.5,30.10,WNW,290,0.0,3.0,92,0.00,,---,0.00,VWS V14.01,2013-01-26 00:00:00,
2013-01-25 19:01:00,27.4,25.4,30.10,WNW,290,0.0,0.0,92,0.00,,---,0.00,VWS V14.01,2013-01-26 00:01:00,
2013-01-25 19:06:00,27.4,25.4,30.10,WNW,290,0.0,0.0,92,0.00,,---,0.00,VWS V14.01,2013-01-26 00:06:00,
2013-01-25 19:11:00,27.4,25.4,30.10,WNW,290,0.0,0.0,92,0.00,,---,0.00,VWS V14.01,2013-01-26 00:11:00,
2013-01-25 19:16:00,27.5,25.5,30.10,WNW,290,0.0,1.0,92,0.00,,---,0.00,VWS V14.01,2013-01-26 00:16:00,
2013-01-25 19:21:00,27.5,25.5,30.10,WNW,290,0.0,1.0,92,0.00,,---,0.00,VWS V14.01,2013-01-26 00:21:00,
2013-01-25 19:26:00,27.5,25.5,30.10,WNW,290,0.0,1.0,92,0.00,,---,0.00,VWS V14.01,2013-01-26 00:26:00,
2013-01-25 19:30:00,27.5,25.5,30.09,WNW,290,0.0,1.0,92,0.00,,---,0.00,VWS V14.01,2013-01-26 00:30:00,
2013-01-25 19:31:00,27.4,25.4,30.09,WNW,290,0.0,0.0,92,0.00,,---,0.00,VWS V14.01,2013-01-26 00:31:00,
2013-01-25 19:36:00,27.4,25.4,30.09,WNW,290,0.0,2.0,92,0.00,,---,0.00,VWS V14.01,2013-01-26 00:36:00,
2013-01-25 19:41:00,27.4,25.4,30.09,WNW,290,0.0,2.0,92,0.00,,---,0.00,VWS V14.01,2013-01-26 00:41:00,
2013-01-25 19:46:00,27.4,25.6,30.09,WNW,290,0.0,2.0,93,0.00,,---,0.00,VWS V14.01,2013-01-26 00:46:00,
2013-01-25 19:51:00,27.3,25.5,30.10,WNW,290,0.0,3.0,93,0.00,,---,0.00,VWS V14.01,2013-01-26 00:51:00,
2013-01-25 19:56:00,27.4,25.6,30.09,WNW,290,0.0,3.0,93,0.00,,---,0.00,VWS V14.01,2013-01-26 00:56:00,
2013-01-25 20:00:00,27.3,25.5,30.09,WNW,290,0.0,3.0,93,0.00,,---,0.00,VWS V14.01,2013-01-26 01:00:00,
2013-01-25 20:01:00,27.3,25.5,30.09,WNW,290,0.0,0.0,93,0.00,,---,0.00,VWS V14.01,2013-01-26 01:01:00,
2013-01-25 20:06:00,27.4,25.6,30.09,WNW,290,0.0,1.0,93,0.00,,---,0.00,VWS V14.01,2013-01-26 01:06:00,
2013-01-25 20:11:00,27.4,25.6,30.08,WNW,290,0.0,1.0,93,0.00,,---,0.00,VWS V14.01,2013-01-26 01:11:00,
2013-01-25 20:16:00,27.4,25.6,30.08,WNW,290,1.0,1.0,93,0.00,,---,0.00,VWS V14.01,2013-01-26 01:16:00,
2013-01-25 20:21:00,27.4,25.6,30.07,WNW,290,0.0,1.0,93,0.00,,---,0.00,VWS V14.01,2013-01-26 01:21:00,
2013-01-25 20:26:00,27.4,25.6,30.07,WNW,290,1.0,1.0,93,0.00,,---,0.00,VWS V14.01,2013-01-26 01:26:00,
2013-01-25 20:30:00,27.4,25.6,30.07,WNW,290,0.0,1.0,93,0.00,,---,0.00,VWS V14.01,2013-01-26 01:30:00,
2013-01-25 20:31:00,27.4,25.6,30.07,WNW,290,0.0,0.0,93,0.00,,---,0.00,VWS V14.01,2013-01-26 01:31:00,
2013-01-25 20:36:00,27.4,25.6,30.07,West,276,0.0,2.0,93,0.00,,---,0.00,VWS V14.01,2013-01-26 01:36:00,
2013-01-25 20:41:00,27.4,25.6,30.06,West,276,0.0,2.0,93,0.00,,---,0.00,VWS V14.01,2013-01-26 01:41:00,
2013-01-25 20:46:00,27.4,25.6,30.06,West,276,1.0,2.0,93,0.00,,---,0.00,VWS V14.01,2013-01-26 01:46:00,
2013-01-25 20:51:00,27.4,25.6,30.06,West,276,0.0,2.0,93,0.00,,---,0.00,VWS V14.01,2013-01-26 01:51:00,
2013-01-25 20:56:00,27.4,25.6,30.06,West,276,0.0,3.0,93,0.00,,---,0.00,VWS V14.01,2013-01-26 01:56:00,
2013-01-25 21:00:00,27.3,25.5,30.06,West,276,0.0,3.0,93,0.00,,---,0.00,VWS V14.01,2013-01-26 02:00:00,
2013-01-25 21:01:00,27.3,25.5,30.06,West,276,0.0,0.0,93,0.00,,---,0.00,VWS V14.01,2013-01-26 02:01:00,
2013-01-25 21:06:00,27.2,25.5,30.06,West,276,0.0,1.0,93,0.00,,---,0.00,VWS V14.01,2013-01-26 02:06:00,
2013-01-25 21:11:00,27.2,25.5,30.06,West,276,0.0,1.0,93,0.00,,---,0.00,VWS V14.01,2013-01-26 02:11:00,
2013-01-25 21:16:00,27.1,25.4,30.06,West,276,0.0,1.0,93,0.00,,---,0.00,VWS V14.01,2013-01-26 02:16:00,
2013-01-25 21:21:00,27.0,25.2,30.06,West,276,0.0,1.0,93,0.00,,---,0.00,VWS V14.01,2013-01-26 02:21:00,
2013-01-25 21:26:00,27.0,25.2,30.07,West,276,0.0,1.0,93,0.00,,---,0.00,VWS V14.01,2013-01-26 02:26:00,
2013-01-25 21:30:00,26.9,25.1,30.08,West,276,1.0,1.0,93,0.00,,---,0.00,VWS V14.01,2013-01-26 02:30:00,
2013-01-25 21:31:00,26.9,25.1,30.08,West,276,2.0,2.0,93,0.00,,---,0.00,VWS V14.01,2013-01-26 02:31:00,
2013-01-25 21:36:00,26.9,25.1,30.08,WNW,300,0.0,3.0,93,0.00,,---,0.00,VWS V14.01,2013-01-26 02:36:00,
2013-01-25 21:41:00,26.9,25.1,30.08,WNW,300,0.0,3.0,93,0.00,,---,0.00,VWS V14.01,2013-01-26 02:41:00,
2013-01-25 21:46:00,26.9,25.1,30.08,WNW,300,0.0,3.0,93,0.00,,---,0.00,VWS V14.01,2013-01-26 02:46:00,
2013-01-25 21:51:00,26.9,25.1,30.09,WNW,300,0.0,3.0,93,0.00,,---,0.00,VWS V14.01,2013-01-26 02:51:00,
2013-01-25 21:56:00,26.9,25.1,30.09,WNW,300,0.0,3.0,93,0.00,,---,0.00,VWS V14.01,2013-01-26 02:56:00,
2013-01-25 22:00:00,26.9,25.1,30.08,WNW,300,0.0,3.0,93,0.00,,---,0.00,VWS V14.01,2013-01-26 03:00:00,
2013-01-25 22:01:00,26.9,25.1,30.08,WNW,300,0.0,0.0,93,0.00,,---,0.00,VWS V14.01,2013-01-26 03:01:00,
2013-01-25 22:06:00,26.9,25.1,30.08,WNW,300,0.0,1.0,93,0.00,,---,0.00,VWS V14.01,2013-01-26 03:06:00,
2013-01-25 22:11:00,26.9,25.1,30.08,WNW,300,0.0,1.0,93,0.00,,---,0.00,VWS V14.01,2013-01-26 03:11:00,
2013-01-25 22:16:00,26.9,25.1,30.08,SW,227,0.0,2.0,93,0.00,,---,0.00,VWS V14.01,2013-01-26 03:16:00,
2013-01-25 22:21:00,26.8,25.0,30.08,WNW,300,0.0,2.0,93,0.00,,---,0.00,VWS V14.01,2013-01-26 03:21:00,
2013-01-25 22:26:00,26.8,25.0,30.08,SSW,204,0.0,2.0,93,0.00,,---,0.00,VWS V14.01,2013-01-26 03:26:00,
2013-01-25 22:30:00,26.8,25.0,30.08,SSW,204,0.0,2.0,93,0.00,,---,0.00,VWS V14.01,2013-01-26 03:30:00,
2013-01-25 22:31:00,26.7,25.0,30.08,SSW,204,0.0,0.0,93,0.00,,---,0.00,VWS V14.01,2013-01-26 03:31:00,
2013-01-25 22:36:00,26.7,25.0,30.08,SSW,204,0.0,0.0,93,0.00,,---,0.00,VWS V14.01,2013-01-26 03:36:00,
2013-01-25 22:41:00,26.7,25.0,30.08,SSW,204,0.0,0.0,93,0.00,,---,0.00,VWS V14.01,2013-01-26 03:41:00,
2013-01-25 22:46:00,26.7,25.0,30.08,SSW,204,0.0,1.0,93,0.00,,---,0.00,VWS V14.01,2013-01-26 03:46:00,
2013-01-25 22:51:00,26.7,25.0,30.08,SSW,204,0.0,1.0,93,0.00,,---,0.00,VWS V14.01,2013-01-26 03:51:00,
2013-01-25 22:56:00,26.6,24.9,30.08,SSW,204,0.0,1.0,93,0.00,,---,0.00,VWS V14.01,2013-01-26 03:56:00,
2013-01-25 23:00:00,26.6,24.9,30.08,SSW,204,0.0,1.0,93,0.00,,---,0.00,VWS V14.01,2013-01-26 04:00:00,
2013-01-25 23:01:00,26.6,24.9,30.08,SSW,204,0.0,0.0,93,0.00,,---,0.00,VWS V14.01,2013-01-26 04:01:00,
2013-01-25 23:06:00,26.6,24.9,30.08,SSW,204,0.0,0.0,93,0.00,,---,0.00,VWS V14.01,2013-01-26 04:06:00,
2013-01-25 23:11:00,26.6,24.9,30.07,SSW,204,0.0,0.0,93,0.00,,---,0.00,VWS V14.01,2013-01-26 04:11:00,
2013-01-25 23:16:00,26.6,24.9,30.07,SSW,204,0.0,1.0,93,0.00,,---,0.00,VWS V14.01,2013-01-26 04:16:00,
2013-01-25 23:21:00,26.6,24.9,30.07,SSW,204,0.0,1.0,93,0.00,,---,0.00,VWS V14.01,2013-01-26 04:21:00,
2013-01-25 23:26:00,26.6,24.9,30.07,SSW,204,0.0,1.0,93,0.00,,---,0.00,VWS V14.01,2013-01-26 04:26:00,
2013-01-25 23:30:00,26.6,24.9,30.07,SSW,204,0.0,1.0,93,0.00,,---,0.00,VWS V14.01,2013-01-26 04:30:00,
2013-01-25 23:31:00,26.6,24.9,30.07,SSW,204,0.0,0.0,93,0.00,,---,0.00,VWS V14.01,2013-01-26 04:31:00,
2013-01-25 23:36:00,26.6,24.9,30.07,SSW,204,0.0,0.0,93,0.00,,---,0.00,VWS V14.01,2013-01-26 04:36:00,
2013-01-25 23:41:00,26.6,24.9,30.06,SSW,204,0.0,1.0,93,0.00,,---,0.00,VWS V14.01,2013-01-26 04:41:00,
2013-01-25 23:46:00,26.6,24.9,30.06,SSW,204,0.0,1.0,93,0.00,,---,0.00,VWS V14.01,2013-01-26 04:46:00,
2013-01-25 23:51:00,26.6,24.9,30.06,SSW,204,0.0,1.0,93,0.00,,---,0.00,VWS V14.01,2013-01-26 04:51:00,
2013-01-25 23:56:00,26.6,24.9,30.06,SSW,204,0.0,1.0,93,0.00,,---,0.00,VWS V14.01,2013-01-26 04:56:00,